sensor_id;sensor_type;location;lat;lon;timestamp;P1;durP1;ratioP1;P2;durP2;ratioP2
16033;SDS011;8121;51.418;6.998;2022-09-11T00:03:00;4.77;;;4.27;;
16033;SDS011;8121;51.418;6.998;2022-09-11T00:13:02;5.40;;;3.70;;
16033;SDS011;8121;51.418;6.998;2022-09-11T00:23:05;5.43;;;4.17;;
16033;SDS011;8121;51.418;6.998;2022-09-11T00:33:06;5.30;;;4.80;;
16033;SDS011;8121;51.418;6.998;2022-09-11T00:43:09;7.00;;;4.47;;
16033;SDS011;8121;51.418;6.998;2022-09-11T00:53:11;7.40;;;4.70;;
16033;SDS011;8121;51.418;6.998;2022-09-11T01:03:16;5.03;;;4.50;;
16033;SDS011;8121;51.418;6.998;2022-09-11T01:13:20;4.00;;;3.63;;
16033;SDS011;8121;51.418;6.998;2022-09-11T01:23:40;5.33;;;4.53;;
16033;SDS011;8121;51.418;6.998;2022-09-11T01:34:03;5.73;;;4.97;;
16033;SDS011;8121;51.418;6.998;2022-09-11T01:44:09;7.97;;;6.50;;
16033;SDS011;8121;51.418;6.998;2022-09-11T01:54:16;8.23;;;5.97;;
16033;SDS011;8121;51.418;6.998;2022-09-11T02:04:24;11.03;;;6.83;;
16033;SDS011;8121;51.418;6.998;2022-09-11T02:14:31;10.07;;;5.27;;
16033;SDS011;8121;51.418;6.998;2022-09-11T02:24:38;10.60;;;6.83;;
16033;SDS011;8121;51.418;6.998;2022-09-11T02:34:41;21.53;;;10.20;;
16033;SDS011;8121;51.418;6.998;2022-09-11T02:44:46;21.80;;;12.83;;
16033;SDS011;8121;51.418;6.998;2022-09-11T02:54:54;17.53;;;9.70;;
16033;SDS011;8121;51.418;6.998;2022-09-11T03:04:59;23.70;;;13.13;;
16033;SDS011;8121;51.418;6.998;2022-09-11T03:15:02;50.33;;;21.63;;
16033;SDS011;8121;51.418;6.998;2022-09-11T03:25:06;25.27;;;11.23;;
16033;SDS011;8121;51.418;6.998;2022-09-11T03:35:11;29.50;;;12.97;;
16033;SDS011;8121;51.418;6.998;2022-09-11T03:45:12;29.97;;;12.47;;
16033;SDS011;8121;51.418;6.998;2022-09-11T03:55:15;22.40;;;9.83;;
16033;SDS011;8121;51.418;6.998;2022-09-11T04:05:17;18.10;;;9.03;;
16033;SDS011;8121;51.418;6.998;2022-09-11T04:15:20;23.43;;;11.50;;
16033;SDS011;8121;51.418;6.998;2022-09-11T04:25:21;73.13;;;21.40;;
16033;SDS011;8121;51.418;6.998;2022-09-11T04:35:24;24.33;;;10.90;;
16033;SDS011;8121;51.418;6.998;2022-09-11T04:45:26;20.20;;;10.77;;
16033;SDS011;8121;51.418;6.998;2022-09-11T04:55:30;22.97;;;10.43;;
16033;SDS011;8121;51.418;6.998;2022-09-11T05:05:31;19.77;;;10.30;;
16033;SDS011;8121;51.418;6.998;2022-09-11T05:15:34;17.10;;;7.70;;
16033;SDS011;8121;51.418;6.998;2022-09-11T05:25:36;16.13;;;8.00;;
16033;SDS011;8121;51.418;6.998;2022-09-11T05:35:39;17.67;;;8.40;;
16033;SDS011;8121;51.418;6.998;2022-09-11T05:45:40;21.77;;;10.20;;
16033;SDS011;8121;51.418;6.998;2022-09-11T05:55:43;70.63;;;21.67;;
16033;SDS011;8121;51.418;6.998;2022-09-11T06:05:46;28.63;;;13.83;;
16033;SDS011;8121;51.418;6.998;2022-09-11T06:15:48;17.90;;;8.80;;
16033;SDS011;8121;51.418;6.998;2022-09-11T06:25:50;34.77;;;16.10;;
16033;SDS011;8121;51.418;6.998;2022-09-11T06:35:57;23.20;;;10.83;;
16033;SDS011;8121;51.418;6.998;2022-09-11T06:46:02;15.20;;;8.03;;
16033;SDS011;8121;51.418;6.998;2022-09-11T06:56:05;27.60;;;13.13;;
16033;SDS011;8121;51.418;6.998;2022-09-11T07:06:09;21.63;;;11.13;;
16033;SDS011;8121;51.418;6.998;2022-09-11T07:16:12;33.43;;;15.77;;
16033;SDS011;8121;51.418;6.998;2022-09-11T07:26:14;17.43;;;9.33;;
16033;SDS011;8121;51.418;6.998;2022-09-11T07:36:20;32.40;;;14.63;;
16033;SDS011;8121;51.418;6.998;2022-09-11T07:46:22;28.40;;;14.03;;
16033;SDS011;8121;51.418;6.998;2022-09-11T07:56:27;23.50;;;11.97;;
16033;SDS011;8121;51.418;6.998;2022-09-11T08:06:31;28.70;;;14.53;;
16033;SDS011;8121;51.418;6.998;2022-09-11T08:16:37;40.17;;;16.70;;
16033;SDS011;8121;51.418;6.998;2022-09-11T08:26:39;50.17;;;18.83;;
16033;SDS011;8121;51.418;6.998;2022-09-11T08:36:44;39.27;;;15.90;;
16033;SDS011;8121;51.418;6.998;2022-09-11T08:46:52;53.53;;;20.13;;
16033;SDS011;8121;51.418;6.998;2022-09-11T08:57:01;31.10;;;14.80;;
16033;SDS011;8121;51.418;6.998;2022-09-11T09:07:17;66.13;;;23.50;;
16033;SDS011;8121;51.418;6.998;2022-09-11T09:17:26;64.67;;;29.17;;
16033;SDS011;8121;51.418;6.998;2022-09-11T09:27:33;47.77;;;23.67;;
16033;SDS011;8121;51.418;6.998;2022-09-11T09:37:37;27.90;;;13.80;;
16033;SDS011;8121;51.418;6.998;2022-09-11T09:47:40;38.53;;;20.00;;
16033;SDS011;8121;51.418;6.998;2022-09-11T09:57:45;35.60;;;19.63;;
16033;SDS011;8121;51.418;6.998;2022-09-11T10:07:47;45.83;;;20.10;;
16033;SDS011;8121;51.418;6.998;2022-09-11T10:17:52;48.37;;;22.93;;
16033;SDS011;8121;51.418;6.998;2022-09-11T10:27:58;51.63;;;24.97;;
16033;SDS011;8121;51.418;6.998;2022-09-11T10:38:15;49.97;;;24.60;;
16033;SDS011;8121;51.418;6.998;2022-09-11T10:48:18;49.57;;;25.03;;
16033;SDS011;8121;51.418;6.998;2022-09-11T10:58:24;64.37;;;30.27;;
16033;SDS011;8121;51.418;6.998;2022-09-11T11:08:35;76.53;;;33.40;;
16033;SDS011;8121;51.418;6.998;2022-09-11T11:18:55;75.27;;;33.90;;
16033;SDS011;8121;51.418;6.998;2022-09-11T11:29:07;72.93;;;32.10;;
16033;SDS011;8121;51.418;6.998;2022-09-11T11:39:17;38.80;;;21.10;;
16033;SDS011;8121;51.418;6.998;2022-09-11T11:49:25;29.13;;;15.50;;
16033;SDS011;8121;51.418;6.998;2022-09-11T11:59:31;38.30;;;20.07;;
16033;SDS011;8121;51.418;6.998;2022-09-11T12:09:36;44.37;;;22.97;;
16033;SDS011;8121;51.418;6.998;2022-09-11T12:19:39;32.47;;;17.23;;
16033;SDS011;8121;51.418;6.998;2022-09-11T12:30:20;54.80;;;27.90;;
16033;SDS011;8121;51.418;6.998;2022-09-11T12:40:27;54.20;;;28.37;;
16033;SDS011;8121;51.418;6.998;2022-09-11T12:50:32;39.77;;;21.50;;
16033;SDS011;8121;51.418;6.998;2022-09-11T13:00:36;42.23;;;23.17;;
16033;SDS011;8121;51.418;6.998;2022-09-11T13:10:39;30.50;;;18.30;;
16033;SDS011;8121;51.418;6.998;2022-09-11T13:20:42;52.43;;;26.53;;
16033;SDS011;8121;51.418;6.998;2022-09-11T13:30:59;25.70;;;15.57;;
16033;SDS011;8121;51.418;6.998;2022-09-11T13:41:05;21.00;;;12.37;;
16033;SDS011;8121;51.418;6.998;2022-09-11T13:51:09;27.70;;;17.80;;
16033;SDS011;8121;51.418;6.998;2022-09-11T14:01:13;11.90;;;9.20;;
16033;SDS011;8121;51.418;6.998;2022-09-11T14:11:19;10.80;;;7.83;;
16033;SDS011;8121;51.418;6.998;2022-09-11T14:21:24;16.20;;;11.93;;
16033;SDS011;8121;51.418;6.998;2022-09-11T14:31:28;18.50;;;11.77;;
16033;SDS011;8121;51.418;6.998;2022-09-11T14:41:32;19.03;;;12.13;;
16033;SDS011;8121;51.418;6.998;2022-09-11T14:51:34;14.83;;;10.43;;
16033;SDS011;8121;51.418;6.998;2022-09-11T15:01:38;11.73;;;9.07;;
16033;SDS011;8121;51.418;6.998;2022-09-11T15:11:39;12.03;;;8.87;;
16033;SDS011;8121;51.418;6.998;2022-09-11T15:21:44;20.00;;;12.10;;
16033;SDS011;8121;51.418;6.998;2022-09-11T15:31:46;6.03;;;5.43;;
16033;SDS011;8121;51.418;6.998;2022-09-11T15:41:49;8.73;;;5.93;;
16033;SDS011;8121;51.418;6.998;2022-09-11T15:51:51;6.80;;;5.90;;
16033;SDS011;8121;51.418;6.998;2022-09-11T16:01:54;18.03;;;8.40;;
16033;SDS011;8121;51.418;6.998;2022-09-11T16:11:56;4.67;;;4.27;;
16033;SDS011;8121;51.418;6.998;2022-09-11T16:22:01;4.73;;;4.13;;
16033;SDS011;8121;51.418;6.998;2022-09-11T16:32:03;5.83;;;4.60;;
16033;SDS011;8121;51.418;6.998;2022-09-11T16:42:06;7.90;;;6.17;;
16033;SDS011;8121;51.418;6.998;2022-09-11T16:52:08;5.57;;;5.00;;
16033;SDS011;8121;51.418;6.998;2022-09-11T17:02:11;5.90;;;5.00;;
16033;SDS011;8121;51.418;6.998;2022-09-11T17:12:13;4.67;;;4.20;;
16033;SDS011;8121;51.418;6.998;2022-09-11T17:22:18;6.90;;;5.33;;
16033;SDS011;8121;51.418;6.998;2022-09-11T17:32:19;7.63;;;5.20;;
16033;SDS011;8121;51.418;6.998;2022-09-11T17:42:23;5.40;;;4.90;;
16033;SDS011;8121;51.418;6.998;2022-09-11T17:52:25;5.70;;;5.20;;
16033;SDS011;8121;51.418;6.998;2022-09-11T18:02:28;6.43;;;5.40;;
16033;SDS011;8121;51.418;6.998;2022-09-11T18:12:30;6.20;;;5.53;;
16033;SDS011;8121;51.418;6.998;2022-09-11T18:22:35;4.87;;;4.43;;
16033;SDS011;8121;51.418;6.998;2022-09-11T18:32:37;6.47;;;4.80;;
16033;SDS011;8121;51.418;6.998;2022-09-11T18:42:40;6.17;;;4.83;;
16033;SDS011;8121;51.418;6.998;2022-09-11T18:52:42;8.50;;;5.43;;
16033;SDS011;8121;51.418;6.998;2022-09-11T19:02:46;9.67;;;6.20;;
16033;SDS011;8121;51.418;6.998;2022-09-11T19:12:49;7.13;;;5.50;;
16033;SDS011;8121;51.418;6.998;2022-09-11T19:22:52;8.83;;;6.90;;
16033;SDS011;8121;51.418;6.998;2022-09-11T19:32:53;8.77;;;6.03;;
16033;SDS011;8121;51.418;6.998;2022-09-11T19:42:56;10.90;;;6.50;;
16033;SDS011;8121;51.418;6.998;2022-09-11T19:52:58;9.53;;;6.30;;
16033;SDS011;8121;51.418;6.998;2022-09-11T20:03:01;12.87;;;7.50;;
16033;SDS011;8121;51.418;6.998;2022-09-11T20:13:02;14.40;;;8.10;;
16033;SDS011;8121;51.418;6.998;2022-09-11T20:23:05;9.23;;;6.37;;
16033;SDS011;8121;51.418;6.998;2022-09-11T20:33:07;11.40;;;6.73;;
16033;SDS011;8121;51.418;6.998;2022-09-11T20:43:12;6.57;;;5.10;;
16033;SDS011;8121;51.418;6.998;2022-09-11T20:53:14;10.83;;;6.60;;
16033;SDS011;8121;51.418;6.998;2022-09-11T21:03:17;9.97;;;6.20;;
16033;SDS011;8121;51.418;6.998;2022-09-11T21:13:19;20.03;;;11.30;;
16033;SDS011;8121;51.418;6.998;2022-09-11T21:23:22;17.63;;;8.23;;
16033;SDS011;8121;51.418;6.998;2022-09-11T21:33:24;13.43;;;7.63;;
16033;SDS011;8121;51.418;6.998;2022-09-11T21:43:27;15.97;;;8.20;;
16033;SDS011;8121;51.418;6.998;2022-09-11T21:53:28;16.50;;;9.23;;
16033;SDS011;8121;51.418;6.998;2022-09-11T22:03:31;18.70;;;7.67;;
16033;SDS011;8121;51.418;6.998;2022-09-11T22:13:33;14.43;;;8.20;;
16033;SDS011;8121;51.418;6.998;2022-09-11T22:23:36;13.57;;;6.97;;
16033;SDS011;8121;51.418;6.998;2022-09-11T22:33:38;21.30;;;10.30;;
16033;SDS011;8121;51.418;6.998;2022-09-11T22:43:42;16.47;;;9.07;;
16033;SDS011;8121;51.418;6.998;2022-09-11T22:53:43;21.40;;;9.73;;
16033;SDS011;8121;51.418;6.998;2022-09-11T23:03:47;12.07;;;7.17;;
16033;SDS011;8121;51.418;6.998;2022-09-11T23:13:48;14.47;;;7.93;;
16033;SDS011;8121;51.418;6.998;2022-09-11T23:23:53;15.17;;;8.80;;
16033;SDS011;8121;51.418;6.998;2022-09-11T23:33:56;18.30;;;8.90;;
16033;SDS011;8121;51.418;6.998;2022-09-11T23:44:00;13.43;;;7.33;;
16033;SDS011;8121;51.418;6.998;2022-09-11T23:54:02;10.27;;;6.57;;
